Airport Name : Bartolomeu Lisandro

Other Name : Campos

ICAO : SBCP

IATA : CAW

FAA :

Latitude : -21.698333

Longitude : -41.301669

Country : Brazil

Local Date and Time : 7/16/2018 4:46:00 PM

 

TAF (Terminal Aerodrome Forecast)

TAF SBCP 161523Z 1618/1706 04010KT CAVOK TX29/1618Z TN22/1623Z BECMG 1703/1705 06005KT RMK PFV

 

METAR (METeorological Aerodrome Report)

SBCP 161900Z 06016KT CAVOK 26/18 Q1020

SBCP 161800Z 05009KT CAVOK 28/18 Q1019

SBCP 161700Z 00000KT CAVOK 29/14 Q1020

SBCP 161600Z 02006KT CAVOK 29/15 Q1020